createdAt,value
2022-08-22T00:00:13.786Z,21.40
2022-08-22T00:03:03.565Z,22.15
2022-08-22T00:05:44.515Z,21.25
2022-08-22T00:08:18.971Z,21.23
2022-08-22T00:10:55.171Z,21.23
2022-08-22T00:13:27.204Z,21.22
2022-08-22T00:16:03.009Z,21.18
2022-08-22T00:18:37.064Z,21.16
2022-08-22T00:21:10.562Z,21.13
2022-08-22T00:23:41.842Z,21.14
2022-08-22T00:26:17.610Z,21.13
2022-08-22T00:28:48.510Z,21.15
2022-08-22T00:31:25.529Z,21.07
2022-08-22T00:33:57.495Z,21.02
2022-08-22T00:36:33.812Z,21.01
2022-08-22T00:39:09.666Z,20.96
2022-08-22T00:42:03.885Z,20.93
2022-08-22T00:44:42.029Z,20.90
2022-08-22T00:47:36.143Z,20.89
2022-08-22T00:50:16.618Z,20.82
2022-08-22T00:52:58.523Z,20.89
2022-08-22T00:55:42.060Z,20.82
2022-08-22T00:58:46.410Z,20.75
2022-08-22T01:01:15.748Z,20.72
2022-08-22T01:03:56.312Z,20.64
2022-08-22T01:06:35.433Z,20.61
2022-08-22T01:09:08.657Z,20.47
2022-08-22T01:11:52.004Z,20.49
2022-08-22T01:14:34.398Z,20.51
2022-08-22T01:17:37.771Z,20.54
2022-08-22T01:20:29.421Z,20.50
2022-08-22T01:23:24.705Z,20.45
2022-08-22T01:26:41.751Z,20.44
2022-08-22T01:29:36.152Z,20.43
2022-08-22T01:32:47.016Z,20.40
2022-08-22T01:35:38.257Z,20.41
2022-08-22T01:38:27.141Z,20.26
2022-08-22T01:41:14.141Z,20.27
2022-08-22T01:44:04.637Z,20.18
2022-08-22T01:46:36.589Z,20.24
2022-08-22T01:49:12.400Z,20.20
2022-08-22T01:51:47.109Z,20.17
2022-08-22T01:54:24.784Z,20.16
2022-08-22T01:56:52.532Z,20.14
2022-08-22T01:59:27.596Z,20.06
2022-08-22T02:02:10.932Z,20.06
2022-08-22T02:04:45.351Z,20.11
2022-08-22T02:07:19.571Z,20.04
2022-08-22T02:09:51.975Z,19.98
2022-08-22T02:12:27.197Z,19.92
2022-08-22T02:15:03.024Z,20.02
2022-08-22T02:17:33.707Z,19.96
2022-08-22T02:20:05.743Z,19.89
2022-08-22T02:22:44.661Z,19.99
2022-08-22T02:25:16.589Z,19.96
2022-08-22T02:27:53.911Z,19.87
2022-08-22T02:30:23.571Z,19.80
2022-08-22T02:32:58.839Z,19.70
2022-08-22T02:35:31.066Z,19.75
2022-08-22T02:38:07.205Z,19.69
2022-08-22T02:40:40.084Z,19.72
2022-08-22T02:43:13.522Z,19.69
2022-08-22T02:45:45.278Z,19.66
2022-08-22T02:48:19.956Z,19.59
2022-08-22T02:50:53.024Z,19.56
2022-08-22T02:53:29.764Z,19.60
2022-08-22T02:56:01.783Z,19.56
2022-08-22T02:58:37.864Z,19.45
2022-08-22T03:01:19.662Z,19.44
2022-08-22T03:03:48.006Z,19.45
2022-08-22T03:06:35.997Z,19.42
2022-08-22T03:09:09.726Z,19.44
2022-08-22T03:11:39.986Z,19.43
2022-08-22T03:14:10.816Z,19.35
2022-08-22T03:16:41.955Z,19.46
2022-08-22T03:19:18.917Z,19.37
2022-08-22T03:21:49.363Z,19.30
2022-08-22T03:24:23.911Z,19.23
2022-08-22T03:26:53.694Z,19.33
2022-08-22T03:29:23.721Z,19.29
2022-08-22T03:32:10.290Z,19.27
2022-08-22T03:34:38.287Z,19.29
2022-08-22T03:37:12.636Z,19.26
2022-08-22T03:39:49.868Z,19.19
2022-08-22T03:43:01.329Z,19.16
2022-08-22T03:46:03.232Z,19.13
2022-08-22T03:48:53.428Z,19.02
2022-08-22T03:51:33.130Z,18.95
2022-08-22T03:54:12.745Z,18.93
2022-08-22T03:57:09.484Z,18.88
2022-08-22T03:59:59.062Z,18.85
2022-08-22T04:02:44.327Z,18.84
2022-08-22T04:05:36.653Z,18.84
2022-08-22T04:08:35.339Z,18.85
2022-08-22T04:11:30.371Z,18.85
2022-08-22T04:14:24.855Z,18.89
2022-08-22T04:17:18.488Z,18.90
2022-08-22T04:20:09.586Z,18.81
2022-08-22T04:23:14.537Z,18.80
2022-08-22T04:25:43.600Z,18.72
2022-08-22T04:28:14.552Z,18.77
2022-08-22T04:30:45.383Z,18.73
2022-08-22T04:33:18.958Z,18.75
2022-08-22T04:35:55.136Z,18.73
2022-08-22T04:38:28.211Z,18.76
2022-08-22T04:41:01.381Z,18.77
2022-08-22T04:43:37.083Z,18.81
2022-08-22T04:46:11.225Z,18.75
2022-08-22T04:48:43.993Z,18.79
2022-08-22T04:51:16.220Z,18.75
2022-08-22T04:53:57.260Z,18.76
2022-08-22T04:56:31.849Z,18.74
2022-08-22T04:59:01.329Z,18.70
2022-08-22T05:01:39.915Z,18.72
2022-08-22T05:04:09.801Z,18.72
2022-08-22T05:06:40.008Z,18.71
2022-08-22T05:09:12.967Z,18.66
2022-08-22T05:11:46.331Z,18.67
2022-08-22T05:14:17.935Z,18.64
2022-08-22T05:16:50.329Z,18.63
2022-08-22T05:19:28.435Z,18.65
2022-08-22T05:21:58.935Z,18.62
2022-08-22T05:24:30.077Z,18.58
2022-08-22T05:26:58.896Z,18.59
2022-08-22T05:29:30.064Z,18.59
2022-08-22T05:32:01.753Z,18.63
2022-08-22T05:34:33.363Z,18.60
2022-08-22T05:37:08.081Z,18.72
2022-08-22T05:39:37.981Z,18.65
2022-08-22T05:42:06.784Z,18.71
2022-08-22T05:44:36.592Z,18.78
2022-08-22T05:47:13.101Z,18.81
2022-08-22T05:49:43.419Z,18.87
2022-08-22T05:52:31.671Z,18.89
2022-08-22T05:55:03.840Z,18.97
2022-08-22T05:57:33.126Z,19.04
2022-08-22T06:00:05.931Z,19.09
2022-08-22T06:02:45.153Z,19.10
2022-08-22T06:05:13.268Z,19.12
2022-08-22T06:07:43.227Z,19.12
2022-08-22T06:10:18.866Z,19.15
2022-08-22T06:12:51.836Z,19.20
2022-08-22T06:15:23.043Z,19.23
2022-08-22T06:17:55.089Z,19.26
2022-08-22T06:20:26.300Z,19.34
2022-08-22T06:22:58.740Z,19.40
2022-08-22T06:25:27.945Z,19.44
2022-08-22T06:27:56.849Z,19.55
2022-08-22T06:30:27.412Z,19.69
2022-08-22T06:33:01.024Z,19.82
2022-08-22T06:35:51.100Z,19.88
2022-08-22T06:38:19.804Z,19.95
2022-08-22T06:40:47.495Z,20.04
2022-08-22T06:43:15.379Z,20.06
2022-08-22T06:45:43.206Z,20.17
2022-08-22T06:48:18.211Z,20.20
2022-08-22T06:50:49.698Z,20.24
2022-08-22T06:53:19.932Z,20.30
2022-08-22T06:55:50.155Z,20.32
2022-08-22T06:58:19.805Z,20.30
2022-08-22T07:00:53.555Z,20.38
2022-08-22T07:03:39.928Z,20.41
2022-08-22T07:06:07.753Z,20.50
2022-08-22T07:08:39.061Z,20.53
2022-08-22T07:11:11.322Z,20.64
2022-08-22T07:13:41.131Z,20.64
2022-08-22T07:16:10.869Z,20.54
2022-08-22T07:18:50.755Z,20.50
2022-08-22T07:21:25.908Z,20.53
2022-08-22T07:23:54.770Z,20.52
2022-08-22T07:26:41.751Z,20.62
2022-08-22T07:29:19.204Z,20.60
2022-08-22T07:31:51.482Z,20.60
2022-08-22T07:34:28.469Z,20.60
2022-08-22T07:37:00.138Z,20.66
2022-08-22T07:39:31.608Z,20.71
2022-08-22T07:42:07.866Z,20.74
2022-08-22T07:44:39.402Z,20.74
2022-08-22T07:47:10.717Z,20.99
2022-08-22T07:49:49.728Z,21.10
2022-08-22T07:52:18.205Z,21.23
2022-08-22T07:54:48.602Z,21.27
2022-08-22T07:57:18.556Z,21.36
2022-08-22T07:59:48.587Z,21.35
2022-08-22T08:02:17.414Z,21.39
2022-08-22T08:04:49.651Z,21.58
2022-08-22T08:07:18.845Z,21.59
2022-08-22T08:09:51.833Z,21.72
2022-08-22T08:12:21.885Z,21.98
2022-08-22T08:14:53.449Z,22.06
2022-08-22T08:17:27.776Z,22.19
2022-08-22T08:19:59.955Z,22.26
2022-08-22T08:22:28.447Z,22.35
2022-08-22T08:24:57.820Z,22.33
2022-08-22T08:27:45.125Z,22.49
2022-08-22T08:30:21.933Z,22.60
2022-08-22T08:32:59.554Z,22.71
2022-08-22T08:36:01.952Z,22.80
2022-08-22T08:38:33.285Z,22.88
2022-08-22T08:41:34.403Z,22.97
2022-08-22T08:44:08.238Z,23.04
2022-08-22T08:46:55.517Z,23.20
2022-08-22T08:49:51.456Z,23.31
2022-08-22T08:52:43.161Z,23.28
2022-08-22T08:55:22.841Z,23.38
2022-08-22T08:58:11.757Z,23.50
2022-08-22T09:00:59.313Z,23.62
2022-08-22T09:03:51.493Z,23.66
2022-08-22T09:06:37.136Z,23.76
2022-08-22T09:09:25.946Z,24.09
2022-08-22T09:12:14.411Z,24.13
2022-08-22T09:15:03.272Z,24.27
2022-08-22T09:18:04.408Z,24.53
2022-08-22T09:20:48.127Z,24.55
2022-08-22T09:23:37.601Z,24.60
2022-08-22T09:26:11.032Z,24.38
2022-08-22T09:28:40.475Z,24.65
2022-08-22T09:31:46.490Z,24.81
2022-08-22T09:34:14.552Z,24.98
2022-08-22T09:37:07.762Z,25.07
2022-08-22T09:39:39.176Z,25.14
2022-08-22T09:42:15.107Z,25.26
2022-08-22T09:44:50.847Z,25.39
2022-08-22T09:47:24.321Z,25.45
2022-08-22T09:49:59.829Z,25.45
2022-08-22T09:52:48.269Z,25.49
2022-08-22T09:55:35.576Z,25.50
2022-08-22T09:58:11.490Z,25.46
2022-08-22T10:00:44.949Z,25.31
2022-08-22T10:03:18.337Z,25.53
2022-08-22T10:05:47.971Z,25.57
2022-08-22T10:08:26.335Z,25.68
2022-08-22T10:11:07.630Z,25.77
2022-08-22T10:13:48.031Z,26.02
2022-08-22T10:16:29.792Z,26.14
2022-08-22T10:19:09.239Z,26.26
2022-08-22T10:21:42.724Z,26.32
2022-08-22T10:24:25.720Z,26.33
2022-08-22T10:26:55.877Z,26.39
2022-08-22T10:29:41.864Z,26.45
2022-08-22T10:32:19.317Z,26.41
2022-08-22T10:34:57.737Z,26.30
2022-08-22T10:37:30.796Z,26.47
2022-08-22T10:40:04.776Z,26.43
2022-08-22T10:42:35.497Z,26.52
2022-08-22T10:45:23.678Z,26.50
2022-08-22T10:48:24.194Z,26.69
2022-08-22T10:50:58.006Z,26.67
2022-08-22T10:53:34.970Z,26.67
2022-08-22T10:56:12.765Z,26.68
2022-08-22T10:58:44.853Z,26.91
2022-08-22T11:01:37.645Z,26.89
2022-08-22T11:04:12.985Z,26.81
2022-08-22T11:06:45.228Z,26.71
2022-08-22T11:09:22.996Z,26.88
2022-08-22T11:11:57.372Z,26.88
2022-08-22T11:14:54.374Z,27.05
2022-08-22T11:17:40.754Z,27.12
2022-08-22T11:20:21.228Z,27.03
2022-08-22T11:23:00.301Z,27.06
2022-08-22T11:25:38.762Z,27.08
2022-08-22T11:28:21.183Z,27.12
2022-08-22T11:30:58.988Z,27.15
2022-08-22T11:33:39.081Z,27.21
2022-08-22T11:36:26.179Z,27.33
2022-08-22T11:39:13.822Z,27.39
2022-08-22T11:41:52.190Z,27.40
2022-08-22T11:44:25.580Z,27.32
2022-08-22T11:46:58.476Z,27.24
2022-08-22T11:49:39.366Z,27.18
2022-08-22T11:52:12.366Z,27.28
2022-08-22T11:55:21.559Z,27.45
2022-08-22T11:57:57.741Z,27.54
2022-08-22T12:00:51.455Z,27.46
2022-08-22T12:04:19.286Z,27.42
2022-08-22T12:06:56.220Z,27.51
2022-08-22T12:11:30.089Z,27.55
2022-08-22T12:13:02.173Z,27.63
2022-08-22T12:19:17.213Z,27.71
2022-08-22T12:22:58.152Z,27.81
2022-08-22T12:25:57.843Z,27.76
2022-08-22T12:28:42.507Z,27.77
2022-08-22T12:31:44.633Z,27.83
2022-08-22T12:35:14.501Z,27.84
2022-08-22T12:38:26.611Z,28.04
2022-08-22T12:41:28.250Z,28.08
2022-08-22T12:44:34.516Z,28.11
2022-08-22T12:47:20.505Z,28.02
2022-08-22T12:50:21.878Z,28.02
2022-08-22T12:54:15.411Z,27.92
2022-08-22T13:05:56.798Z,27.49
2022-08-22T13:08:51.946Z,27.34
2022-08-22T13:11:23.214Z,27.36
2022-08-22T13:13:56.024Z,27.36
2022-08-22T13:16:25.668Z,27.54
2022-08-22T13:18:56.621Z,27.53
2022-08-22T13:21:31.440Z,27.60
2022-08-22T13:24:01.121Z,27.61
2022-08-22T13:26:33.790Z,27.61
2022-08-22T13:31:55.346Z,28.05
2022-08-22T13:34:34.839Z,27.89
2022-08-22T13:37:08.045Z,27.98
2022-08-22T13:39:39.814Z,28.09
2022-08-22T13:42:14.296Z,28.17
2022-08-22T13:44:51.365Z,28.34
2022-08-22T13:47:21.461Z,28.40
2022-08-22T13:49:53.653Z,28.47
2022-08-22T13:52:29.295Z,28.57
2022-08-22T13:55:01.681Z,28.69
2022-08-22T13:57:33.350Z,28.68
2022-08-22T14:00:08.747Z,28.71
2022-08-22T14:02:56.491Z,28.77
2022-08-22T14:05:33.023Z,28.83
2022-08-22T14:08:13.301Z,28.80
2022-08-22T14:10:45.407Z,28.79
2022-08-22T14:13:36.780Z,28.88
2022-08-22T14:16:06.958Z,28.81
2022-08-22T14:18:45.647Z,28.76
2022-08-22T14:21:27.275Z,28.67
2022-08-22T14:23:57.292Z,28.58
2022-08-22T14:26:33.020Z,28.41
2022-08-22T14:29:08.222Z,28.38
2022-08-22T14:31:36.356Z,28.22
2022-08-22T14:34:07.610Z,28.08
2022-08-22T14:36:46.213Z,28.21
2022-08-22T14:39:22.636Z,28.37
2022-08-22T14:41:55.740Z,28.36
2022-08-22T14:44:27.404Z,28.35
2022-08-22T14:46:56.743Z,28.40
2022-08-22T14:49:36.333Z,28.27
2022-08-22T14:52:11.014Z,28.27
2022-08-22T14:54:48.015Z,28.16
2022-08-22T14:57:20.767Z,28.32
2022-08-22T14:59:50.970Z,28.38
2022-08-22T15:02:25.521Z,28.47
2022-08-22T15:04:54.936Z,28.50
2022-08-22T15:07:25.895Z,28.52
2022-08-22T15:09:56.321Z,28.69
2022-08-22T15:12:27.632Z,28.59
2022-08-22T15:14:57.488Z,28.68
2022-08-22T15:17:40.426Z,28.80
2022-08-22T15:20:27.969Z,28.86
2022-08-22T15:23:01.892Z,28.99
2022-08-22T15:25:33.374Z,28.94
2022-08-22T15:28:53.932Z,28.91
2022-08-22T15:31:48.875Z,28.87
2022-08-22T15:35:17.847Z,29.06
2022-08-22T15:42:38.243Z,29.13
2022-08-22T15:45:26.500Z,29.19
2022-08-22T15:48:29.150Z,29.17
2022-08-22T15:51:20.948Z,29.07
2022-08-22T15:54:28.705Z,29.08
2022-08-22T15:57:51.484Z,29.21
2022-08-22T16:00:34.001Z,29.21
2022-08-22T16:03:15.530Z,29.33
2022-08-22T16:06:02.455Z,29.26
2022-08-22T16:09:18.682Z,29.19
2022-08-22T16:12:31.715Z,29.25
2022-08-22T16:15:56.843Z,29.18
2022-08-22T16:19:08.088Z,29.41
2022-08-22T16:23:05.300Z,29.30
2022-08-22T16:26:23.788Z,29.22
2022-08-22T16:29:37.672Z,29.15
2022-08-22T16:32:17.831Z,29.16
2022-08-22T16:34:59.651Z,29.23
2022-08-22T16:38:15.934Z,29.37
2022-08-22T16:41:14.467Z,29.40
2022-08-22T16:44:37.592Z,29.16
2022-08-22T16:47:30.377Z,29.19
2022-08-22T16:50:10.514Z,29.02
2022-08-22T16:53:14.042Z,28.95
2022-08-22T16:56:46.099Z,28.90
2022-08-22T16:59:43.350Z,28.92
2022-08-22T17:03:01.261Z,28.97
2022-08-22T17:06:43.826Z,28.78
2022-08-22T17:09:52.624Z,28.75
2022-08-22T17:13:03.781Z,28.74
2022-08-22T17:16:07.904Z,28.75
2022-08-22T17:18:52.334Z,28.67
2022-08-22T17:21:53.840Z,28.37
2022-08-22T17:24:31.873Z,28.26
2022-08-22T17:27:09.547Z,28.16
2022-08-22T17:30:14.887Z,28.01
2022-08-22T17:33:16.665Z,28.02
2022-08-22T17:36:21.087Z,27.93
2022-08-22T17:39:38.819Z,27.81
2022-08-22T17:43:09.928Z,27.78
2022-08-22T17:45:43.550Z,27.60
2022-08-22T17:48:43.081Z,27.48
2022-08-22T17:51:26.514Z,27.38
2022-08-22T17:55:06.769Z,27.24
2022-08-22T17:57:58.205Z,27.11
2022-08-22T18:01:12.298Z,27.01
2022-08-22T18:04:31.834Z,26.88
2022-08-22T18:07:41.270Z,26.69
2022-08-22T18:10:32.781Z,26.59
2022-08-22T18:13:18.372Z,26.46
2022-08-22T18:16:37.672Z,26.33
2022-08-22T18:19:34.751Z,26.09
2022-08-22T18:26:08.825Z,25.75
2022-08-22T18:31:52.771Z,25.44
2022-08-22T18:34:31.185Z,25.32
2022-08-22T18:37:02.149Z,25.23
2022-08-22T18:39:32.783Z,25.08
2022-08-22T18:42:05.635Z,24.97
2022-08-22T18:44:37.931Z,24.84
2022-08-22T18:47:41.892Z,24.74
2022-08-22T18:50:41.931Z,24.67
2022-08-22T18:54:30.241Z,24.52
2022-08-22T18:57:10.790Z,24.48
2022-08-22T19:00:13.666Z,24.35
2022-08-22T19:03:19.215Z,24.26
2022-08-22T19:06:46.118Z,24.14
2022-08-22T19:09:53.696Z,24.09
2022-08-22T19:13:09.055Z,24.09
2022-08-22T19:16:07.584Z,24.04
2022-08-22T19:22:51.073Z,23.83
2022-08-22T19:25:42.219Z,23.75
2022-08-22T19:28:48.869Z,23.69
2022-08-22T19:31:47.168Z,23.68
2022-08-22T19:35:02.046Z,23.73
2022-08-22T19:41:51.278Z,23.60
2022-08-22T19:59:18.376Z,23.38
2022-08-22T20:12:56.026Z,23.36
2022-08-22T20:15:58.537Z,23.31
2022-08-22T20:20:16.315Z,23.32
2022-08-22T20:22:57.212Z,23.26
2022-08-22T20:25:55.046Z,23.17
2022-08-22T20:28:50.790Z,23.13
2022-08-22T20:31:27.854Z,23.07
2022-08-22T20:34:40.886Z,23.01
2022-08-22T20:37:35.983Z,23.06
2022-08-22T20:41:11.703Z,23.08
2022-08-22T20:44:47.549Z,23.00
2022-08-22T20:48:04.946Z,22.95
2022-08-22T20:51:25.459Z,22.88
2022-08-22T20:54:21.603Z,22.94
2022-08-22T20:57:46.130Z,22.98
2022-08-22T21:01:04.154Z,22.99
2022-08-22T21:04:12.312Z,22.93
2022-08-22T21:07:54.572Z,22.88
2022-08-22T21:11:35.069Z,22.82
2022-08-22T21:14:16.886Z,22.74
2022-08-22T21:17:35.578Z,22.74
2022-08-22T21:20:27.928Z,22.83
2022-08-22T21:23:41.774Z,22.78
2022-08-22T21:26:53.880Z,22.85
2022-08-22T21:29:40.225Z,22.74
2022-08-22T21:40:00.429Z,22.64
2022-08-22T21:43:21.101Z,22.60
2022-08-22T21:46:01.122Z,22.61
2022-08-22T21:48:49.612Z,22.61
2022-08-22T21:55:21.138Z,23.06
2022-08-22T21:58:37.491Z,23.04
2022-08-22T22:02:02.703Z,22.87
2022-08-22T22:04:41.036Z,22.94
2022-08-22T22:07:23.793Z,22.84
2022-08-22T22:10:01.774Z,22.87
2022-08-22T22:16:56.911Z,22.87
2022-08-22T22:19:39.663Z,22.76
2022-08-22T22:22:49.966Z,22.86
2022-08-22T22:25:47.104Z,22.85
2022-08-22T22:29:14.876Z,22.86
2022-08-22T22:32:19.786Z,22.96
2022-08-22T22:38:21.856Z,23.02
2022-08-22T22:41:29.879Z,23.10
2022-08-22T22:45:31.130Z,22.94
2022-08-22T22:47:49.222Z,23.09
2022-08-22T22:50:49.663Z,23.03
